sensor_id;sensor_type;location;lat;lon;timestamp;pressure;altitude;pressure_sealevel;temperature;humidity
70971;BME280;58632;51.718;19.446;2023-06-04T00:01:51;100193.50;;;7.04;100.00
70971;BME280;58632;51.718;19.446;2023-06-04T00:04:17;100192.70;;;7.02;100.00
70971;BME280;58632;51.718;19.446;2023-06-04T00:06:43;100189.66;;;7.00;100.00
70971;BME280;58632;51.718;19.446;2023-06-04T00:09:09;100190.69;;;6.96;100.00
70971;BME280;58632;51.718;19.446;2023-06-04T00:11:34;100187.73;;;6.96;100.00
70971;BME280;58632;51.718;19.446;2023-06-04T00:14:02;100187.41;;;6.96;100.00
70971;BME280;58632;51.718;19.446;2023-06-04T00:16:27;100185.61;;;6.96;100.00
70971;BME280;58632;51.718;19.446;2023-06-04T00:18:53;100188.68;;;6.95;100.00
70971;BME280;58632;51.718;19.446;2023-06-04T00:21:19;100190.92;;;6.94;100.00
70971;BME280;58632;51.718;19.446;2023-06-04T00:23:44;100189.63;;;6.92;100.00
70971;BME280;58632;51.718;19.446;2023-06-04T00:26:10;100189.66;;;6.89;100.00
70971;BME280;58632;51.718;19.446;2023-06-04T00:28:35;100190.52;;;6.85;100.00
70971;BME280;58632;51.718;19.446;2023-06-04T00:31:04;100185.91;;;6.82;100.00
70971;BME280;58632;51.718;19.446;2023-06-04T00:33:30;100185.70;;;6.82;100.00
70971;BME280;58632;51.718;19.446;2023-06-04T00:35:56;100187.20;;;6.81;100.00
70971;BME280;58632;51.718;19.446;2023-06-04T00:38:21;100186.83;;;6.78;100.00
70971;BME280;58632;51.718;19.446;2023-06-04T00:40:47;100187.12;;;6.75;100.00
70971;BME280;58632;51.718;19.446;2023-06-04T00:43:12;100183.66;;;6.73;100.00
70971;BME280;58632;51.718;19.446;2023-06-04T00:45:39;100185.45;;;6.73;100.00
70971;BME280;58632;51.718;19.446;2023-06-04T00:48:25;100186.02;;;6.72;100.00
70971;BME280;58632;51.718;19.446;2023-06-04T00:50:53;100185.70;;;6.70;100.00
70971;BME280;58632;51.718;19.446;2023-06-04T00:53:20;100182.85;;;6.66;100.00
70971;BME280;58632;51.718;19.446;2023-06-04T00:55:46;100182.45;;;6.64;100.00
70971;BME280;58632;51.718;19.446;2023-06-04T00:58:11;100179.16;;;6.61;100.00
70971;BME280;58632;51.718;19.446;2023-06-04T01:00:38;100178.80;;;6.63;100.00
70971;BME280;58632;51.718;19.446;2023-06-04T01:03:07;100176.71;;;6.65;100.00
70971;BME280;58632;51.718;19.446;2023-06-04T01:08:35;100181.23;;;6.60;100.00
70971;BME280;58632;51.718;19.446;2023-06-04T01:11:01;100179.23;;;6.58;100.00
70971;BME280;58632;51.718;19.446;2023-06-04T01:13:26;100177.60;;;6.56;100.00
70971;BME280;58632;51.718;19.446;2023-06-04T01:15:52;100177.44;;;6.57;100.00
70971;BME280;58632;51.718;19.446;2023-06-04T01:18:25;100178.70;;;6.57;100.00
70971;BME280;58632;51.718;19.446;2023-06-04T01:21:02;100177.02;;;6.58;100.00
70971;BME280;58632;51.718;19.446;2023-06-04T01:23:44;100178.70;;;6.56;100.00
70971;BME280;58632;51.718;19.446;2023-06-04T01:26:11;100179.52;;;6.56;100.00
70971;BME280;58632;51.718;19.446;2023-06-04T01:28:37;100178.98;;;6.55;100.00
70971;BME280;58632;51.718;19.446;2023-06-04T01:31:04;100181.45;;;6.52;100.00
70971;BME280;58632;51.718;19.446;2023-06-04T01:33:33;100188.20;;;6.47;100.00
70971;BME280;58632;51.718;19.446;2023-06-04T01:35:59;100186.73;;;6.45;100.00
70971;BME280;58632;51.718;19.446;2023-06-04T01:38:26;100186.37;;;6.44;100.00
70971;BME280;58632;51.718;19.446;2023-06-04T01:40:52;100185.66;;;6.43;100.00
70971;BME280;58632;51.718;19.446;2023-06-04T01:43:22;100184.09;;;6.42;100.00
70971;BME280;58632;51.718;19.446;2023-06-04T01:45:47;100184.64;;;6.42;100.00
70971;BME280;58632;51.718;19.446;2023-06-04T01:48:15;100182.52;;;6.43;100.00
70971;BME280;58632;51.718;19.446;2023-06-04T01:50:41;100183.77;;;6.43;100.00
70971;BME280;58632;51.718;19.446;2023-06-04T01:53:07;100183.55;;;6.42;100.00
70971;BME280;58632;51.718;19.446;2023-06-04T01:55:32;100181.50;;;6.41;100.00
70971;BME280;58632;51.718;19.446;2023-06-04T01:57:59;100180.98;;;6.39;100.00
70971;BME280;58632;51.718;19.446;2023-06-04T02:00:27;100179.06;;;6.39;100.00
70971;BME280;58632;51.718;19.446;2023-06-04T02:02:52;100175.36;;;6.41;100.00
70971;BME280;58632;51.718;19.446;2023-06-04T02:05:20;100178.02;;;6.42;100.00
70971;BME280;58632;51.718;19.446;2023-06-04T02:07:46;100176.55;;;6.41;100.00
70971;BME280;58632;51.718;19.446;2023-06-04T02:10:17;100175.72;;;6.42;100.00
70971;BME280;58632;51.718;19.446;2023-06-04T02:13:13;100176.54;;;6.43;100.00
70971;BME280;58632;51.718;19.446;2023-06-04T02:15:38;100172.17;;;6.44;100.00
70971;BME280;58632;51.718;19.446;2023-06-04T02:18:15;100175.66;;;6.43;100.00
70971;BME280;58632;51.718;19.446;2023-06-04T02:20:45;100169.64;;;6.41;100.00
70971;BME280;58632;51.718;19.446;2023-06-04T02:23:11;100172.57;;;6.42;100.00
70971;BME280;58632;51.718;19.446;2023-06-04T02:25:36;100175.17;;;6.42;100.00
70971;BME280;58632;51.718;19.446;2023-06-04T02:28:02;100176.10;;;6.42;100.00
70971;BME280;58632;51.718;19.446;2023-06-04T02:30:27;100178.61;;;6.43;100.00
70971;BME280;58632;51.718;19.446;2023-06-04T02:32:53;100182.05;;;6.44;100.00
70971;BME280;58632;51.718;19.446;2023-06-04T02:35:20;100180.69;;;6.46;100.00
70971;BME280;58632;51.718;19.446;2023-06-04T02:37:48;100179.85;;;6.43;100.00
70971;BME280;58632;51.718;19.446;2023-06-04T02:40:16;100183.21;;;6.44;100.00
70971;BME280;58632;51.718;19.446;2023-06-04T02:42:42;100181.19;;;6.44;100.00
70971;BME280;58632;51.718;19.446;2023-06-04T02:45:08;100178.05;;;6.44;100.00
70971;BME280;58632;51.718;19.446;2023-06-04T02:47:33;100178.25;;;6.45;100.00
70971;BME280;58632;51.718;19.446;2023-06-04T02:49:59;100176.72;;;6.48;100.00
70971;BME280;58632;51.718;19.446;2023-06-04T02:52:24;100175.75;;;6.51;100.00
70971;BME280;58632;51.718;19.446;2023-06-04T02:54:52;100180.73;;;6.52;100.00
70971;BME280;58632;51.718;19.446;2023-06-04T02:57:18;100173.65;;;6.53;100.00
70971;BME280;58632;51.718;19.446;2023-06-04T02:59:44;100172.93;;;6.55;100.00
70971;BME280;58632;51.718;19.446;2023-06-04T03:02:10;100175.58;;;6.59;100.00
70971;BME280;58632;51.718;19.446;2023-06-04T03:04:38;100174.41;;;6.61;100.00
70971;BME280;58632;51.718;19.446;2023-06-04T03:07:08;100175.42;;;6.63;100.00
70971;BME280;58632;51.718;19.446;2023-06-04T03:09:37;100178.89;;;6.66;100.00
70971;BME280;58632;51.718;19.446;2023-06-04T03:12:03;100180.08;;;6.71;100.00
70971;BME280;58632;51.718;19.446;2023-06-04T03:14:29;100183.40;;;6.79;100.00
70971;BME280;58632;51.718;19.446;2023-06-04T03:17:02;100181.84;;;6.87;100.00
70971;BME280;58632;51.718;19.446;2023-06-04T03:19:35;100185.80;;;6.94;100.00
70971;BME280;58632;51.718;19.446;2023-06-04T03:22:01;100181.80;;;7.02;100.00
70971;BME280;58632;51.718;19.446;2023-06-04T03:24:36;100184.03;;;7.08;100.00
70971;BME280;58632;51.718;19.446;2023-06-04T03:27:03;100187.12;;;7.14;100.00
70971;BME280;58632;51.718;19.446;2023-06-04T03:29:29;100182.34;;;7.22;100.00
70971;BME280;58632;51.718;19.446;2023-06-04T03:31:59;100180.40;;;7.31;100.00
70971;BME280;58632;51.718;19.446;2023-06-04T03:34:25;100181.97;;;7.41;100.00
70971;BME280;58632;51.718;19.446;2023-06-04T03:36:52;100177.41;;;7.48;100.00
70971;BME280;58632;51.718;19.446;2023-06-04T03:39:17;100179.83;;;7.60;100.00
70971;BME280;58632;51.718;19.446;2023-06-04T03:41:43;100179.73;;;7.71;100.00
70971;BME280;58632;51.718;19.446;2023-06-04T03:44:09;100182.27;;;7.85;100.00
70971;BME280;58632;51.718;19.446;2023-06-04T03:46:34;100186.68;;;7.97;100.00
70971;BME280;58632;51.718;19.446;2023-06-04T03:49:02;100187.40;;;8.07;100.00
70971;BME280;58632;51.718;19.446;2023-06-04T03:51:28;100189.05;;;8.20;100.00
70971;BME280;58632;51.718;19.446;2023-06-04T03:53:53;100186.73;;;8.35;100.00
70971;BME280;58632;51.718;19.446;2023-06-04T03:56:21;100188.36;;;8.50;100.00
70971;BME280;58632;51.718;19.446;2023-06-04T03:58:47;100188.37;;;8.66;100.00
70971;BME280;58632;51.718;19.446;2023-06-04T04:01:12;100185.66;;;8.80;100.00
70971;BME280;58632;51.718;19.446;2023-06-04T04:03:38;100188.69;;;8.95;100.00
70971;BME280;58632;51.718;19.446;2023-06-04T04:06:05;100192.95;;;9.12;100.00
70971;BME280;58632;51.718;19.446;2023-06-04T04:08:30;100191.16;;;9.28;100.00
70971;BME280;58632;51.718;19.446;2023-06-04T04:11:00;100187.55;;;9.48;100.00
70971;BME280;58632;51.718;19.446;2023-06-04T04:13:26;100186.57;;;9.65;100.00
70971;BME280;58632;51.718;19.446;2023-06-04T04:15:51;100192.96;;;9.84;100.00
70971;BME280;58632;51.718;19.446;2023-06-04T04:18:21;100194.25;;;10.00;100.00
70971;BME280;58632;51.718;19.446;2023-06-04T04:20:47;100192.98;;;10.75;100.00
70971;BME280;58632;51.718;19.446;2023-06-04T04:23:13;100189.13;;;12.87;100.00
70971;BME280;58632;51.718;19.446;2023-06-04T04:25:38;100188.18;;;14.78;100.00
70971;BME280;58632;51.718;19.446;2023-06-04T04:28:04;100186.44;;;16.27;97.67
70971;BME280;58632;51.718;19.446;2023-06-04T04:30:36;100185.84;;;17.63;91.39
70971;BME280;58632;51.718;19.446;2023-06-04T04:33:02;100185.20;;;18.62;85.38
70971;BME280;58632;51.718;19.446;2023-06-04T04:35:30;100181.54;;;19.87;78.18
70971;BME280;58632;51.718;19.446;2023-06-04T04:37:59;100182.10;;;20.83;70.53
70971;BME280;58632;51.718;19.446;2023-06-04T04:40:28;100179.05;;;21.37;65.72
70971;BME280;58632;51.718;19.446;2023-06-04T04:42:54;100180.31;;;21.96;59.73
70971;BME280;58632;51.718;19.446;2023-06-04T04:45:20;100180.06;;;22.95;51.84
70971;BME280;58632;51.718;19.446;2023-06-04T04:47:46;100186.23;;;23.78;49.32
70971;BME280;58632;51.718;19.446;2023-06-04T04:50:12;100181.48;;;24.27;43.83
70971;BME280;58632;51.718;19.446;2023-06-04T04:52:37;100184.61;;;24.63;43.35
70971;BME280;58632;51.718;19.446;2023-06-04T04:55:03;100186.91;;;25.47;40.29
70971;BME280;58632;51.718;19.446;2023-06-04T04:57:29;100187.76;;;26.49;38.00
70971;BME280;58632;51.718;19.446;2023-06-04T04:59:55;100189.02;;;27.25;35.78
70971;BME280;58632;51.718;19.446;2023-06-04T05:02:20;100185.37;;;27.70;33.21
70971;BME280;58632;51.718;19.446;2023-06-04T05:04:46;100183.54;;;28.01;30.92
70971;BME280;58632;51.718;19.446;2023-06-04T05:07:12;100183.75;;;28.22;30.93
70971;BME280;58632;51.718;19.446;2023-06-04T05:09:37;100181.59;;;28.68;29.59
70971;BME280;58632;51.718;19.446;2023-06-04T05:12:03;100178.94;;;29.00;29.42
70971;BME280;58632;51.718;19.446;2023-06-04T05:14:32;100176.02;;;29.28;27.76
70971;BME280;58632;51.718;19.446;2023-06-04T05:17:00;100175.85;;;29.28;27.72
70971;BME280;58632;51.718;19.446;2023-06-04T05:19:26;100177.36;;;29.35;27.21
70971;BME280;58632;51.718;19.446;2023-06-04T05:21:51;100179.67;;;29.62;27.26
70971;BME280;58632;51.718;19.446;2023-06-04T05:24:17;100177.20;;;29.64;26.44
70971;BME280;58632;51.718;19.446;2023-06-04T05:26:43;100181.50;;;29.66;26.57
70971;BME280;58632;51.718;19.446;2023-06-04T05:29:08;100182.27;;;29.97;26.22
70971;BME280;58632;51.718;19.446;2023-06-04T05:31:34;100183.15;;;30.54;26.03
70971;BME280;58632;51.718;19.446;2023-06-04T05:34:02;100188.67;;;31.06;25.28
70971;BME280;58632;51.718;19.446;2023-06-04T05:36:30;100184.58;;;31.35;25.24
70971;BME280;58632;51.718;19.446;2023-06-04T05:38:56;100188.14;;;31.64;24.42
70971;BME280;58632;51.718;19.446;2023-06-04T05:41:28;100185.30;;;31.71;24.17
70971;BME280;58632;51.718;19.446;2023-06-04T05:43:54;100188.49;;;31.75;22.84
70971;BME280;58632;51.718;19.446;2023-06-04T05:46:20;100190.17;;;31.20;22.82
70971;BME280;58632;51.718;19.446;2023-06-04T05:48:46;100190.55;;;30.99;23.03
70971;BME280;58632;51.718;19.446;2023-06-04T05:51:15;100188.94;;;31.10;23.38
70971;BME280;58632;51.718;19.446;2023-06-04T05:53:40;100186.88;;;30.97;22.71
70971;BME280;58632;51.718;19.446;2023-06-04T05:56:06;100187.19;;;30.84;22.27
70971;BME280;58632;51.718;19.446;2023-06-04T05:58:34;100188.49;;;30.17;22.78
70971;BME280;58632;51.718;19.446;2023-06-04T06:01:00;100189.73;;;29.75;23.12
70971;BME280;58632;51.718;19.446;2023-06-04T06:03:27;100194.13;;;29.48;23.78
70971;BME280;58632;51.718;19.446;2023-06-04T06:05:53;100195.25;;;29.57;24.13
70971;BME280;58632;51.718;19.446;2023-06-04T06:08:20;100198.12;;;29.49;24.20
70971;BME280;58632;51.718;19.446;2023-06-04T06:10:46;100198.55;;;29.97;24.09
70971;BME280;58632;51.718;19.446;2023-06-04T06:13:12;100198.38;;;30.45;23.60
70971;BME280;58632;51.718;19.446;2023-06-04T06:15:37;100193.02;;;30.35;23.20
70971;BME280;58632;51.718;19.446;2023-06-04T06:18:04;100194.86;;;30.38;23.37
70971;BME280;58632;51.718;19.446;2023-06-04T06:20:30;100193.67;;;29.99;23.53
70971;BME280;58632;51.718;19.446;2023-06-04T06:22:55;100191.08;;;29.79;23.64
70971;BME280;58632;51.718;19.446;2023-06-04T06:25:21;100191.19;;;29.59;23.23
70971;BME280;58632;51.718;19.446;2023-06-04T06:27:47;100197.19;;;29.11;23.93
70971;BME280;58632;51.718;19.446;2023-06-04T06:30:13;100199.02;;;28.88;24.58
70971;BME280;58632;51.718;19.446;2023-06-04T06:32:39;100203.39;;;28.57;24.48
70971;BME280;58632;51.718;19.446;2023-06-04T06:35:05;100199.59;;;27.89;24.24
70971;BME280;58632;51.718;19.446;2023-06-04T06:37:31;100199.48;;;27.44;25.59
70971;BME280;58632;51.718;19.446;2023-06-04T06:39:56;100195.26;;;27.23;26.36
70971;BME280;58632;51.718;19.446;2023-06-04T06:42:22;100193.02;;;27.10;25.71
70971;BME280;58632;51.718;19.446;2023-06-04T06:44:48;100192.30;;;26.83;26.80
70971;BME280;58632;51.718;19.446;2023-06-04T06:47:13;100195.52;;;26.64;27.19
70971;BME280;58632;51.718;19.446;2023-06-04T06:49:40;100193.13;;;26.23;26.63
70971;BME280;58632;51.718;19.446;2023-06-04T06:52:06;100194.75;;;26.09;27.39
70971;BME280;58632;51.718;19.446;2023-06-04T06:54:31;100193.27;;;25.97;27.10
70971;BME280;58632;51.718;19.446;2023-06-04T06:56:57;100191.42;;;25.91;27.52
70971;BME280;58632;51.718;19.446;2023-06-04T06:59:22;100194.20;;;25.93;27.79
70971;BME280;58632;51.718;19.446;2023-06-04T07:01:48;100198.89;;;25.89;27.38
70971;BME280;58632;51.718;19.446;2023-06-04T07:04:14;100194.86;;;25.81;27.62
70971;BME280;58632;51.718;19.446;2023-06-04T07:06:39;100198.52;;;25.50;27.35
70971;BME280;58632;51.718;19.446;2023-06-04T07:09:05;100197.63;;;25.33;27.65
70971;BME280;58632;51.718;19.446;2023-06-04T07:11:33;100207.70;;;25.33;27.62
70971;BME280;58632;51.718;19.446;2023-06-04T07:13:59;100205.77;;;25.10;27.16
70971;BME280;58632;51.718;19.446;2023-06-04T07:16:28;100214.95;;;24.59;27.87
70971;BME280;58632;51.718;19.446;2023-06-04T07:18:53;100214.07;;;24.34;28.33
70971;BME280;58632;51.718;19.446;2023-06-04T07:21:19;100218.45;;;24.19;29.33
70971;BME280;58632;51.718;19.446;2023-06-04T07:23:47;100216.23;;;24.30;29.51
70971;BME280;58632;51.718;19.446;2023-06-04T07:26:15;100210.43;;;24.50;28.99
70971;BME280;58632;51.718;19.446;2023-06-04T07:28:41;100209.52;;;24.52;29.06
70971;BME280;58632;51.718;19.446;2023-06-04T07:31:07;100209.98;;;24.62;28.77
70971;BME280;58632;51.718;19.446;2023-06-04T07:33:33;100214.29;;;24.92;28.31
70971;BME280;58632;51.718;19.446;2023-06-04T07:35:59;100209.23;;;25.07;27.66
70971;BME280;58632;51.718;19.446;2023-06-04T07:38:26;100210.50;;;25.08;28.06
70971;BME280;58632;51.718;19.446;2023-06-04T07:40:52;100213.09;;;25.20;27.33
70971;BME280;58632;51.718;19.446;2023-06-04T07:43:17;100210.66;;;25.24;26.78
70971;BME280;58632;51.718;19.446;2023-06-04T07:45:43;100205.20;;;25.37;28.05
70971;BME280;58632;51.718;19.446;2023-06-04T07:48:09;100208.62;;;25.48;28.07
70971;BME280;58632;51.718;19.446;2023-06-04T07:50:36;100208.64;;;25.74;28.85
70971;BME280;58632;51.718;19.446;2023-06-04T07:53:02;100207.52;;;25.90;29.13
70971;BME280;58632;51.718;19.446;2023-06-04T07:55:27;100206.76;;;25.89;28.36
70971;BME280;58632;51.718;19.446;2023-06-04T07:57:53;100207.05;;;25.80;27.91
70971;BME280;58632;51.718;19.446;2023-06-04T08:00:19;100210.85;;;26.02;27.11
70971;BME280;58632;51.718;19.446;2023-06-04T08:02:45;100211.14;;;26.34;26.92
70971;BME280;58632;51.718;19.446;2023-06-04T08:05:10;100215.54;;;26.47;25.98
70971;BME280;58632;51.718;19.446;2023-06-04T08:07:39;100210.15;;;26.41;25.77
70971;BME280;58632;51.718;19.446;2023-06-04T08:10:06;100215.58;;;26.17;25.62
70971;BME280;58632;51.718;19.446;2023-06-04T08:12:31;100214.39;;;25.73;26.15
70971;BME280;58632;51.718;19.446;2023-06-04T08:14:57;100213.41;;;25.49;26.16
70971;BME280;58632;51.718;19.446;2023-06-04T08:17:23;100212.34;;;25.54;25.91
70971;BME280;58632;51.718;19.446;2023-06-04T08:19:48;100208.16;;;25.55;25.71
70971;BME280;58632;51.718;19.446;2023-06-04T08:22:14;100209.92;;;25.37;26.05
70971;BME280;58632;51.718;19.446;2023-06-04T08:24:40;100207.98;;;25.30;27.00
70971;BME280;58632;51.718;19.446;2023-06-04T08:27:05;100208.69;;;25.50;27.17
70971;BME280;58632;51.718;19.446;2023-06-04T08:29:34;100209.59;;;25.83;27.17
70971;BME280;58632;51.718;19.446;2023-06-04T08:32:02;100214.35;;;25.98;26.47
70971;BME280;58632;51.718;19.446;2023-06-04T08:34:29;100206.59;;;26.04;27.29
70971;BME280;58632;51.718;19.446;2023-06-04T08:36:55;100208.33;;;26.27;26.99
70971;BME280;58632;51.718;19.446;2023-06-04T08:39:21;100203.52;;;26.27;25.00
70971;BME280;58632;51.718;19.446;2023-06-04T08:42:00;100208.88;;;26.28;25.18
70971;BME280;58632;51.718;19.446;2023-06-04T08:44:27;100205.20;;;26.13;25.09
70971;BME280;58632;51.718;19.446;2023-06-04T08:47:02;100209.54;;;26.06;24.88
70971;BME280;58632;51.718;19.446;2023-06-04T08:49:33;100208.27;;;25.79;24.94
70971;BME280;58632;51.718;19.446;2023-06-04T08:52:00;100205.25;;;25.75;24.50
70971;BME280;58632;51.718;19.446;2023-06-04T08:54:26;100201.83;;;25.73;24.24
70971;BME280;58632;51.718;19.446;2023-06-04T08:56:56;100202.45;;;25.86;24.58
70971;BME280;58632;51.718;19.446;2023-06-04T08:59:22;100202.36;;;25.76;24.93
70971;BME280;58632;51.718;19.446;2023-06-04T09:01:48;100203.91;;;25.46;25.36
70971;BME280;58632;51.718;19.446;2023-06-04T09:04:13;100197.72;;;25.39;25.81
70971;BME280;58632;51.718;19.446;2023-06-04T09:06:39;100197.91;;;25.55;25.23
70971;BME280;58632;51.718;19.446;2023-06-04T09:09:09;100196.15;;;25.63;24.93
70971;BME280;58632;51.718;19.446;2023-06-04T09:11:41;100191.60;;;25.79;25.16
70971;BME280;58632;51.718;19.446;2023-06-04T09:14:08;100197.70;;;25.77;25.22
70971;BME280;58632;51.718;19.446;2023-06-04T09:19:10;100196.61;;;25.16;25.59
70971;BME280;58632;51.718;19.446;2023-06-04T09:21:46;100192.73;;;25.26;25.84
70971;BME280;58632;51.718;19.446;2023-06-04T09:24:12;100188.25;;;25.33;25.86
70971;BME280;58632;51.718;19.446;2023-06-04T09:26:38;100190.35;;;25.20;26.04
70971;BME280;58632;51.718;19.446;2023-06-04T09:29:04;100187.17;;;24.89;26.54
70971;BME280;58632;51.718;19.446;2023-06-04T09:31:31;100178.02;;;24.94;26.99
70971;BME280;58632;51.718;19.446;2023-06-04T09:34:02;100177.67;;;24.99;27.33
70971;BME280;58632;51.718;19.446;2023-06-04T09:36:34;100180.54;;;24.90;26.47
70971;BME280;58632;51.718;19.446;2023-06-04T09:39:02;100183.47;;;24.68;26.39
70971;BME280;58632;51.718;19.446;2023-06-04T09:41:30;100180.05;;;24.64;25.91
70971;BME280;58632;51.718;19.446;2023-06-04T09:44:02;100183.42;;;24.76;26.69
70971;BME280;58632;51.718;19.446;2023-06-04T09:46:29;100181.24;;;25.02;25.91
70971;BME280;58632;51.718;19.446;2023-06-04T09:49:01;100182.48;;;25.10;25.82
70971;BME280;58632;51.718;19.446;2023-06-04T09:51:28;100179.75;;;24.87;26.64
70971;BME280;58632;51.718;19.446;2023-06-04T09:53:58;100179.39;;;24.66;26.09
70971;BME280;58632;51.718;19.446;2023-06-04T09:56:24;100177.55;;;24.54;26.24
70971;BME280;58632;51.718;19.446;2023-06-04T09:58:59;100180.02;;;24.71;26.05
70971;BME280;58632;51.718;19.446;2023-06-04T10:01:29;100178.23;;;24.87;27.35
70971;BME280;58632;51.718;19.446;2023-06-04T10:03:58;100177.61;;;24.96;26.72
70971;BME280;58632;51.718;19.446;2023-06-04T10:06:25;100179.94;;;25.06;27.31
70971;BME280;58632;51.718;19.446;2023-06-04T10:08:52;100176.48;;;24.86;27.59
70971;BME280;58632;51.718;19.446;2023-06-04T10:11:31;100174.64;;;24.74;27.97
70971;BME280;58632;51.718;19.446;2023-06-04T10:14:03;100171.47;;;24.81;28.52
70971;BME280;58632;51.718;19.446;2023-06-04T10:16:31;100173.12;;;24.85;27.79
70971;BME280;58632;51.718;19.446;2023-06-04T10:18:58;100166.68;;;24.80;28.33
70971;BME280;58632;51.718;19.446;2023-06-04T10:21:26;100171.21;;;24.83;27.33
70971;BME280;58632;51.718;19.446;2023-06-04T10:23:52;100169.55;;;24.69;28.31
70971;BME280;58632;51.718;19.446;2023-06-04T10:26:17;100166.97;;;24.71;27.90
70971;BME280;58632;51.718;19.446;2023-06-04T10:28:43;100168.91;;;24.81;28.38
70971;BME280;58632;51.718;19.446;2023-06-04T10:31:10;100170.65;;;24.96;28.14
70971;BME280;58632;51.718;19.446;2023-06-04T10:33:36;100169.84;;;24.97;27.20
70971;BME280;58632;51.718;19.446;2023-06-04T10:36:20;100169.42;;;25.01;27.01
70971;BME280;58632;51.718;19.446;2023-06-04T10:38:47;100166.52;;;24.91;26.29
70971;BME280;58632;51.718;19.446;2023-06-04T10:41:17;100169.13;;;24.85;26.63
70971;BME280;58632;51.718;19.446;2023-06-04T10:43:46;100162.00;;;24.85;25.78
70971;BME280;58632;51.718;19.446;2023-06-04T10:46:16;100164.45;;;24.87;26.92
70971;BME280;58632;51.718;19.446;2023-06-04T10:49:00;100166.20;;;24.90;26.83
70971;BME280;58632;51.718;19.446;2023-06-04T10:51:33;100163.48;;;24.81;27.07
70971;BME280;58632;51.718;19.446;2023-06-04T10:54:00;100153.17;;;24.64;26.71
70971;BME280;58632;51.718;19.446;2023-06-04T10:58:52;100154.73;;;24.56;25.77
70971;BME280;58632;51.718;19.446;2023-06-04T11:01:25;100155.42;;;24.44;25.62
70971;BME280;58632;51.718;19.446;2023-06-04T11:03:51;100157.85;;;24.18;25.52
70971;BME280;58632;51.718;19.446;2023-06-04T11:06:17;100156.19;;;24.14;25.21
70971;BME280;58632;51.718;19.446;2023-06-04T11:08:43;100153.08;;;24.10;25.53
70971;BME280;58632;51.718;19.446;2023-06-04T11:11:16;100151.41;;;24.04;25.44
70971;BME280;58632;51.718;19.446;2023-06-04T11:13:42;100151.39;;;24.12;25.11
70971;BME280;58632;51.718;19.446;2023-06-04T11:16:16;100152.00;;;23.99;25.13
70971;BME280;58632;51.718;19.446;2023-06-04T11:18:42;100155.17;;;23.69;25.40
70971;BME280;58632;51.718;19.446;2023-06-04T11:21:08;100158.69;;;23.62;25.69
70971;BME280;58632;51.718;19.446;2023-06-04T11:23:34;100159.50;;;23.63;25.16
70971;BME280;58632;51.718;19.446;2023-06-04T11:26:01;100158.30;;;23.67;24.79
70971;BME280;58632;51.718;19.446;2023-06-04T11:28:26;100159.09;;;23.71;25.75
70971;BME280;58632;51.718;19.446;2023-06-04T11:31:05;100158.06;;;23.61;25.76
70971;BME280;58632;51.718;19.446;2023-06-04T11:33:47;100158.38;;;23.59;24.98
70971;BME280;58632;51.718;19.446;2023-06-04T11:36:26;100154.46;;;23.63;24.15
70971;BME280;58632;51.718;19.446;2023-06-04T11:38:59;100154.61;;;23.70;24.39
70971;BME280;58632;51.718;19.446;2023-06-04T11:41:30;100148.80;;;23.61;26.29
70971;BME280;58632;51.718;19.446;2023-06-04T11:43:56;100151.29;;;23.58;26.50
70971;BME280;58632;51.718;19.446;2023-06-04T11:46:22;100149.14;;;23.49;26.84
70971;BME280;58632;51.718;19.446;2023-06-04T11:48:50;100147.30;;;23.47;26.33
70971;BME280;58632;51.718;19.446;2023-06-04T11:51:16;100149.46;;;23.46;26.46
70971;BME280;58632;51.718;19.446;2023-06-04T11:53:42;100143.71;;;23.45;26.61
70971;BME280;58632;51.718;19.446;2023-06-04T11:56:07;100144.16;;;23.64;26.97
70971;BME280;58632;51.718;19.446;2023-06-04T11:58:33;100144.31;;;23.73;27.38
70971;BME280;58632;51.718;19.446;2023-06-04T12:00:59;100142.64;;;23.77;26.60
70971;BME280;58632;51.718;19.446;2023-06-04T12:03:41;100145.05;;;23.76;26.71
70971;BME280;58632;51.718;19.446;2023-06-04T12:06:17;100142.30;;;23.73;26.79
70971;BME280;58632;51.718;19.446;2023-06-04T12:08:54;100141.91;;;23.81;26.10
70971;BME280;58632;51.718;19.446;2023-06-04T12:11:33;100141.11;;;23.79;25.94
70971;BME280;58632;51.718;19.446;2023-06-04T12:14:03;100140.71;;;23.76;25.18
70971;BME280;58632;51.718;19.446;2023-06-04T12:16:29;100136.61;;;23.93;25.24
70971;BME280;58632;51.718;19.446;2023-06-04T12:19:09;100130.35;;;24.06;25.36
70971;BME280;58632;51.718;19.446;2023-06-04T12:21:35;100138.71;;;24.22;25.63
70971;BME280;58632;51.718;19.446;2023-06-04T12:24:13;100135.16;;;24.34;26.47
70971;BME280;58632;51.718;19.446;2023-06-04T12:26:41;100133.92;;;24.40;25.78
70971;BME280;58632;51.718;19.446;2023-06-04T12:29:17;100135.91;;;24.41;24.88
70971;BME280;58632;51.718;19.446;2023-06-04T12:31:45;100125.38;;;24.41;25.05
70971;BME280;58632;51.718;19.446;2023-06-04T12:34:15;100124.09;;;24.40;24.65
70971;BME280;58632;51.718;19.446;2023-06-04T12:36:43;100120.77;;;24.35;24.80
70971;BME280;58632;51.718;19.446;2023-06-04T12:39:08;100120.98;;;24.37;25.54
70971;BME280;58632;51.718;19.446;2023-06-04T12:41:36;100119.69;;;24.45;25.99
70971;BME280;58632;51.718;19.446;2023-06-04T12:44:02;100124.30;;;24.48;25.67
70971;BME280;58632;51.718;19.446;2023-06-04T12:46:28;100120.69;;;24.53;25.50
70971;BME280;58632;51.718;19.446;2023-06-04T12:48:54;100122.89;;;24.59;25.10
70971;BME280;58632;51.718;19.446;2023-06-04T12:51:20;100122.43;;;24.68;24.16